sensor_id;sensor_type;location;lat;lon;timestamp;pressure;altitude;pressure_sealevel;temperature;humidity
33075;BME280;76138;50.768;7.212;2024-03-17T20:36:47;100669.81;;;21.97;45.70
33075;BME280;76138;50.768;7.212;2024-03-17T20:40:53;100638.91;;;19.95;43.81
33075;BME280;76138;50.768;7.212;2024-03-17T20:43:18;100635.59;;;17.17;49.88
33075;BME280;76138;50.768;7.212;2024-03-17T20:45:43;100621.34;;;14.61;58.83
33075;BME280;76138;50.768;7.212;2024-03-17T20:48:09;100628.38;;;12.72;67.65
33075;BME280;76138;50.768;7.212;2024-03-17T20:50:34;100624.50;;;12.07;73.60
33075;BME280;76138;50.768;7.212;2024-03-17T20:53:00;100614.78;;;11.63;77.35
33075;BME280;76138;50.768;7.212;2024-03-17T20:55:25;100615.88;;;11.15;80.73
33075;BME280;76138;50.768;7.212;2024-03-17T20:57:53;100608.66;;;10.79;82.96
33075;BME280;76138;50.768;7.212;2024-03-17T21:00:22;100609.03;;;11.11;81.76
33075;BME280;76138;50.768;7.212;2024-03-17T21:02:51;100607.00;;;10.91;83.06
33075;BME280;76138;50.768;7.212;2024-03-17T21:05:17;100606.03;;;11.06;82.38
33075;BME280;76138;50.768;7.212;2024-03-17T21:07:43;100608.06;;;11.25;81.55
33075;BME280;76138;50.768;7.212;2024-03-17T21:10:09;100603.25;;;11.06;82.64
33075;BME280;76138;50.768;7.212;2024-03-17T21:12:37;100615.44;;;11.18;82.92
33075;BME280;76138;50.768;7.212;2024-03-17T21:15:02;100606.28;;;11.11;83.11
33075;BME280;76138;50.768;7.212;2024-03-17T21:17:27;100610.50;;;11.07;82.82
33075;BME280;76138;50.768;7.212;2024-03-17T21:19:53;100591.53;;;10.97;83.15
33075;BME280;76138;50.768;7.212;2024-03-17T21:22:20;100595.97;;;10.91;83.80
33075;BME280;76138;50.768;7.212;2024-03-17T21:24:45;100579.97;;;10.80;83.60
33075;BME280;76138;50.768;7.212;2024-03-17T21:27:12;100598.69;;;11.26;82.64
33075;BME280;76138;50.768;7.212;2024-03-17T21:29:38;100598.91;;;11.24;82.54
33075;BME280;76138;50.768;7.212;2024-03-17T21:32:03;100587.50;;;11.47;81.28
33075;BME280;76138;50.768;7.212;2024-03-17T21:34:28;100554.41;;;11.13;81.69
33075;BME280;76138;50.768;7.212;2024-03-17T21:36:54;100594.63;;;11.22;82.38
33075;BME280;76138;50.768;7.212;2024-03-17T21:39:19;100592.91;;;11.75;80.53
33075;BME280;76138;50.768;7.212;2024-03-17T21:41:48;100593.91;;;11.61;80.62
33075;BME280;76138;50.768;7.212;2024-03-17T21:44:14;100590.44;;;12.00;78.55
33075;BME280;76138;50.768;7.212;2024-03-17T21:46:41;100591.91;;;11.96;78.50
33075;BME280;76138;50.768;7.212;2024-03-17T21:49:06;100568.34;;;11.52;80.35
33075;BME280;76138;50.768;7.212;2024-03-17T21:51:31;100564.56;;;11.60;79.72
33075;BME280;76138;50.768;7.212;2024-03-17T21:53:56;100556.16;;;11.27;81.96
33075;BME280;76138;50.768;7.212;2024-03-17T21:56:22;100570.09;;;11.06;83.43
33075;BME280;76138;50.768;7.212;2024-03-17T21:58:47;100565.06;;;11.22;83.13
33075;BME280;76138;50.768;7.212;2024-03-17T22:01:13;100549.31;;;11.23;82.41
33075;BME280;76138;50.768;7.212;2024-03-17T22:03:38;100577.41;;;11.81;80.73
33075;BME280;76138;50.768;7.212;2024-03-17T22:06:04;100571.78;;;11.54;81.46
33075;BME280;76138;50.768;7.212;2024-03-17T22:08:29;100573.16;;;11.85;80.31
33075;BME280;76138;50.768;7.212;2024-03-17T22:10:56;100566.53;;;11.92;79.59
33075;BME280;76138;50.768;7.212;2024-03-17T22:13:27;100566.97;;;11.22;82.21
33075;BME280;76138;50.768;7.212;2024-03-17T22:18:19;100551.97;;;11.44;81.02
33075;BME280;76138;50.768;7.212;2024-03-17T22:20:55;100563.34;;;11.82;80.63
33075;BME280;76138;50.768;7.212;2024-03-17T22:23:21;100567.66;;;12.05;79.63
33075;BME280;76138;50.768;7.212;2024-03-17T22:25:57;100574.03;;;12.12;78.55
33075;BME280;76138;50.768;7.212;2024-03-17T22:28:27;100562.31;;;12.03;79.82
33075;BME280;76138;50.768;7.212;2024-03-17T22:30:56;100564.25;;;12.16;79.69
33075;BME280;76138;50.768;7.212;2024-03-17T22:33:23;100567.41;;;12.39;78.93
33075;BME280;76138;50.768;7.212;2024-03-17T22:36:04;100565.53;;;12.20;79.05
33075;BME280;76138;50.768;7.212;2024-03-17T22:38:35;100562.97;;;12.18;79.77
33075;BME280;76138;50.768;7.212;2024-03-17T22:41:02;100545.47;;;12.11;79.71
33075;BME280;76138;50.768;7.212;2024-03-17T22:43:29;100565.72;;;12.31;79.47
33075;BME280;76138;50.768;7.212;2024-03-17T22:45:58;100552.09;;;11.97;80.67
33075;BME280;76138;50.768;7.212;2024-03-17T22:48:26;100542.50;;;12.26;79.13
33075;BME280;76138;50.768;7.212;2024-03-17T22:51:01;100553.56;;;12.26;79.29
33075;BME280;76138;50.768;7.212;2024-03-17T22:53:26;100549.22;;;11.57;82.49
33075;BME280;76138;50.768;7.212;2024-03-17T22:55:54;100540.78;;;11.92;81.26
33075;BME280;76138;50.768;7.212;2024-03-17T22:58:21;100540.13;;;11.77;81.53
33075;BME280;76138;50.768;7.212;2024-03-17T23:00:48;100540.72;;;11.59;82.31
33075;BME280;76138;50.768;7.212;2024-03-17T23:03:20;100531.53;;;11.45;82.46
33075;BME280;76138;50.768;7.212;2024-03-17T23:05:47;100536.84;;;11.47;82.85
33075;BME280;76138;50.768;7.212;2024-03-17T23:08:12;100533.19;;;11.33;82.80
33075;BME280;76138;50.768;7.212;2024-03-17T23:10:38;100534.56;;;11.70;81.83
33075;BME280;76138;50.768;7.212;2024-03-17T23:13:03;100537.59;;;12.02;80.85
33075;BME280;76138;50.768;7.212;2024-03-17T23:15:28;100522.03;;;11.94;79.46
33075;BME280;76138;50.768;7.212;2024-03-17T23:17:54;100544.13;;;11.68;80.49
33075;BME280;76138;50.768;7.212;2024-03-17T23:20:20;100534.63;;;11.90;79.81
33075;BME280;76138;50.768;7.212;2024-03-17T23:22:46;100518.13;;;11.62;79.46
33075;BME280;76138;50.768;7.212;2024-03-17T23:25:12;100533.22;;;11.40;81.33
33075;BME280;76138;50.768;7.212;2024-03-17T23:27:37;100518.50;;;11.33;81.97
33075;BME280;76138;50.768;7.212;2024-03-17T23:30:04;100529.69;;;11.79;80.28
33075;BME280;76138;50.768;7.212;2024-03-17T23:32:30;100527.28;;;11.62;80.94
33075;BME280;76138;50.768;7.212;2024-03-17T23:34:55;100498.41;;;11.85;80.03
33075;BME280;76138;50.768;7.212;2024-03-17T23:37:21;100531.22;;;12.14;79.59
33075;BME280;76138;50.768;7.212;2024-03-17T23:39:46;100521.84;;;12.02;80.50
33075;BME280;76138;50.768;7.212;2024-03-17T23:42:11;100523.06;;;11.60;81.31
33075;BME280;76138;50.768;7.212;2024-03-17T23:44:36;100513.53;;;11.76;81.65
33075;BME280;76138;50.768;7.212;2024-03-17T23:47:02;100528.44;;;12.08;81.06
33075;BME280;76138;50.768;7.212;2024-03-17T23:49:28;100502.09;;;11.24;84.02
33075;BME280;76138;50.768;7.212;2024-03-17T23:51:53;100511.06;;;11.33;84.44
33075;BME280;76138;50.768;7.212;2024-03-17T23:54:19;100510.72;;;11.02;87.00
33075;BME280;76138;50.768;7.212;2024-03-17T23:56:44;100522.94;;;10.73;90.50
33075;BME280;76138;50.768;7.212;2024-03-17T23:59:09;100513.72;;;10.59;93.41
